Time;durP1;ratioP1;P1;durP2;ratioP2;P2;SDS_P1;SDS_P2;PMS_P1;PMS_P2;Temp;Humidity;BMP_temperature;BMP_pressure;BME280_temperature;BME280_humidity;BME280_pressure;Samples;Min_cycle;Max_cycle;Signal;HPM_P1;HPM_P2
2023/07/08 00:01:18;;;;;;;3.55;2.55;;;;;;;;;;5092555;28;20229;-37
2023/07/08 00:03:48;;;;;;;4.55;2.83;;;;;;;;;;5092475;28;20191;-39
2023/07/08 00:06:25;;;;;;;6.47;3.00;;;;;;;;;;5094310;28;20210;-37
2023/07/08 00:08:52;;;;;;;4.53;2.20;;;;;;;;;;5094238;28;20285;-38
2023/07/08 00:11:20;;;;;;;3.15;2.00;;;;;;;;;;5094529;28;20219;-37
2023/07/08 00:13:47;;;;;;;5.47;2.40;;;;;;;;;;5094351;28;20221;-37
2023/07/08 00:16:17;;;;;;;4.97;2.63;;;;;;;;;;5094380;28;20713;-37
2023/07/08 00:18:44;;;;;;;3.92;2.67;;;;;;;;;;5094350;28;20194;-37
2023/07/08 00:21:15;;;;;;;3.67;2.58;;;;;;;;;;5092930;28;20230;-37
2023/07/08 00:23:50;;;;;;;3.95;2.90;;;;;;;;;;5094034;28;20210;-38
2023/07/08 00:26:20;;;;;;;3.67;2.45;;;;;;;;;;5094102;28;20237;-38
2023/07/08 00:28:47;;;;;;;5.13;3.08;;;;;;;;;;5094645;28;20210;-38
2023/07/08 00:31:14;;;;;;;7.40;2.90;;;;;;;;;;5092943;28;20298;-37
2023/07/08 00:33:42;;;;;;;5.80;2.90;;;;;;;;;;5093762;28;20230;-37
2023/07/08 00:36:12;;;;;;;4.63;2.90;;;;;;;;;;5094024;28;20203;-37
2023/07/08 00:38:44;;;;;;;6.07;3.20;;;;;;;;;;5092922;28;20210;-38
2023/07/08 00:41:25;;;;;;;5.72;3.42;;;;;;;;;;5058271;28;20270;-38
2023/07/08 00:43:55;;;;;;;5.07;3.13;;;;;;;;;;5094014;28;20573;-38
2023/07/08 00:46:31;;;;;;;7.70;2.83;;;;;;;;;;5093953;28;20186;-39
2023/07/08 00:49:13;;;;;;;4.82;2.78;;;;;;;;;;5093639;28;20194;-38
2023/07/08 00:51:41;;;;;;;4.97;2.85;;;;;;;;;;5075809;28;20260;-37
2023/07/08 00:54:12;;;;;;;4.60;2.90;;;;;;;;;;5093573;28;20199;-37
2023/07/08 00:56:42;;;;;;;5.60;3.40;;;;;;;;;;5093650;28;20206;-38
2023/07/08 00:59:21;;;;;;;5.20;3.05;;;;;;;;;;5092321;28;20203;-37
2023/07/08 01:01:49;;;;;;;4.82;2.85;;;;;;;;;;5093455;28;20708;-37
2023/07/08 01:04:30;;;;;;;3.85;2.63;;;;;;;;;;5075714;28;20589;-37
2023/07/08 01:06:59;;;;;;;4.10;2.60;;;;;;;;;;5092267;28;20248;-37
2023/07/08 01:09:35;;;;;;;5.63;3.00;;;;;;;;;;5092521;28;20211;-37
2023/07/08 01:12:06;;;;;;;5.32;2.88;;;;;;;;;;5093725;28;20210;-37
2023/07/08 01:14:36;;;;;;;5.18;2.60;;;;;;;;;;5075870;28;20229;-37
2023/07/08 01:17:03;;;;;;;4.95;2.60;;;;;;;;;;5075530;28;20213;-37
2023/07/08 01:19:33;;;;;;;8.07;2.53;;;;;;;;;;5093374;28;20690;-37
2023/07/08 01:22:05;;;;;;;6.15;2.45;;;;;;;;;;5092180;28;20225;-37
2023/07/08 01:24:35;;;;;;;6.65;2.40;;;;;;;;;;5093357;28;20593;-38
2023/07/08 01:27:06;;;;;;;3.30;2.30;;;;;;;;;;5092203;28;20234;-37
2023/07/08 01:29:33;;;;;;;4.30;2.85;;;;;;;;;;5093239;28;20198;-37
2023/07/08 01:32:05;;;;;;;3.75;2.50;;;;;;;;;;5092027;28;20206;-37
2023/07/08 01:34:33;;;;;;;4.07;2.28;;;;;;;;;;5091967;28;20202;-38
2023/07/08 01:37:03;;;;;;;8.68;2.55;;;;;;;;;;5093036;28;20570;-37
2023/07/08 01:39:31;;;;;;;2.80;2.20;;;;;;;;;;5091828;28;20206;-38
2023/07/08 01:41:59;;;;;;;3.90;2.63;;;;;;;;;;5089916;28;20241;-37
2023/07/08 01:44:29;;;;;;;13.02;2.70;;;;;;;;;;5084929;28;20284;-37
2023/07/08 01:47:00;;;;;;;4.35;2.53;;;;;;;;;;5075810;28;20652;-37
2023/07/08 01:49:28;;;;;;;7.10;2.45;;;;;;;;;;5059051;28;20188;-37
2023/07/08 01:51:56;;;;;;;3.28;2.00;;;;;;;;;;5075360;28;20212;-37
2023/07/08 01:54:23;;;;;;;6.20;2.53;;;;;;;;;;5076282;28;20664;-36
2023/07/08 01:56:56;;;;;;;4.28;2.03;;;;;;;;;;5076199;28;20590;-37
2023/07/08 01:59:23;;;;;;;6.63;2.45;;;;;;;;;;5075296;28;20187;-36
2023/07/08 02:01:54;;;;;;;4.47;2.22;;;;;;;;;;5075172;28;20234;-36
2023/07/08 02:04:23;;;;;;;3.55;2.30;;;;;;;;;;5076376;28;20217;-37
2023/07/08 02:06:53;;;;;;;5.50;3.08;;;;;;;;;;5074940;28;20237;-38
2023/07/08 02:09:20;;;;;;;4.05;2.90;;;;;;;;;;5075954;28;20573;-39
2023/07/08 02:11:47;;;;;;;5.75;2.97;;;;;;;;;;5076008;28;20230;-37
2023/07/08 02:14:14;;;;;;;6.50;3.50;;;;;;;;;;5076231;28;20206;-38
2023/07/08 02:16:42;;;;;;;3.65;2.97;;;;;;;;;;5074933;28;20655;-37
2023/07/08 02:19:10;;;;;;;4.93;3.13;;;;;;;;;;5075961;28;20249;-37
2023/07/08 02:21:38;;;;;;;8.23;3.30;;;;;;;;;;5075671;28;20269;-37
2023/07/08 02:24:08;;;;;;;3.97;2.88;;;;;;;;;;5074722;28;20371;-37
2023/07/08 02:26:35;;;;;;;3.45;2.50;;;;;;;;;;5074322;28;20239;-37
2023/07/08 02:29:03;;;;;;;7.55;3.10;;;;;;;;;;5075683;28;20285;-37
2023/07/08 02:31:30;;;;;;;13.60;3.40;;;;;;;;;;5074653;28;20211;-37
2023/07/08 02:33:57;;;;;;;5.40;3.00;;;;;;;;;;5081835;28;20674;-37
2023/07/08 02:36:25;;;;;;;6.65;3.28;;;;;;;;;;5094992;28;20225;-37
2023/07/08 02:38:53;;;;;;;4.03;2.70;;;;;;;;;;5094857;28;20198;-37
2023/07/08 02:41:20;;;;;;;5.38;3.50;;;;;;;;;;5095606;28;20747;-37
2023/07/08 02:43:47;;;;;;;8.45;3.00;;;;;;;;;;5095738;28;20285;-38
2023/07/08 02:46:15;;;;;;;6.78;3.33;;;;;;;;;;5096245;28;20639;-37
2023/07/08 02:48:42;;;;;;;6.40;3.33;;;;;;;;;;5094579;28;20199;-37
2023/07/08 02:51:09;;;;;;;4.05;2.90;;;;;;;;;;5095849;28;20206;-37
2023/07/08 02:53:36;;;;;;;6.03;3.30;;;;;;;;;;5095464;28;20199;-37
2023/07/08 02:56:03;;;;;;;12.30;3.55;;;;;;;;;;5094821;28;20202;-37
2023/07/08 02:58:30;;;;;;;7.97;3.22;;;;;;;;;;5095581;28;20587;-37
2023/07/08 03:00:59;;;;;;;4.93;3.08;;;;;;;;;;5094439;28;20190;-37
2023/07/08 03:03:30;;;;;;;7.25;2.95;;;;;;;;;;5094375;28;20309;-37
2023/07/08 03:06:01;;;;;;;6.00;3.30;;;;;;;;;;5095591;28;20203;-37
2023/07/08 03:08:29;;;;;;;8.02;3.35;;;;;;;;;;5095827;28;20238;-37
2023/07/08 03:11:05;;;;;;;14.90;3.55;;;;;;;;;;5095368;28;20763;-37
2023/07/08 03:13:33;;;;;;;5.93;3.80;;;;;;;;;;5094177;28;20293;-38
2023/07/08 03:16:02;;;;;;;9.38;3.47;;;;;;;;;;5094424;28;20214;-37
2023/07/08 03:18:29;;;;;;;6.93;3.60;;;;;;;;;;5095142;28;20199;-36
2023/07/08 03:20:57;;;;;;;6.38;3.90;;;;;;;;;;5095444;28;20210;-37
2023/07/08 03:23:26;;;;;;;9.38;3.72;;;;;;;;;;5093836;28;20567;-38
2023/07/08 03:25:53;;;;;;;32.25;16.00;;;;;;;;;;5095520;28;20231;-38
2023/07/08 03:28:23;;;;;;;18.10;8.13;;;;;;;;;;5093962;28;20202;-38
2023/07/08 03:30:52;;;;;;;10.20;4.00;;;;;;;;;;5095048;28;20255;-37
2023/07/08 03:33:21;;;;;;;8.48;3.90;;;;;;;;;;5093746;28;20209;-38
2023/07/08 03:35:48;;;;;;;10.50;3.95;;;;;;;;;;5093694;28;20210;-38
2023/07/08 03:38:16;;;;;;;10.20;4.25;;;;;;;;;;5094071;28;20222;-37
2023/07/08 03:40:44;;;;;;;8.18;3.72;;;;;;;;;;5094957;28;20198;-36
2023/07/08 03:43:11;;;;;;;7.18;4.28;;;;;;;;;;5093589;28;20733;-36
2023/07/08 03:45:39;;;;;;;8.25;3.70;;;;;;;;;;5093569;28;20210;-36
2023/07/08 03:48:10;;;;;;;6.88;4.00;;;;;;;;;;5093418;28;20203;-36
2023/07/08 03:50:39;;;;;;;11.57;4.38;;;;;;;;;;5093553;28;20195;-36
2023/07/08 03:53:08;;;;;;;7.13;4.10;;;;;;;;;;5091646;28;20210;-37
2023/07/08 03:55:36;;;;;;;17.05;4.18;;;;;;;;;;5090312;28;20198;-37
2023/07/08 03:58:04;;;;;;;5.00;3.95;;;;;;;;;;5088594;28;20203;-37
2023/07/08 04:00:34;;;;;;;6.32;3.85;;;;;;;;;;5088233;28;20198;-38
2023/07/08 04:03:02;;;;;;;9.65;4.40;;;;;;;;;;5090865;28;20306;-37
2023/07/08 04:05:29;;;;;;;6.50;4.25;;;;;;;;;;5093019;28;20267;-37
2023/07/08 04:07:57;;;;;;;6.22;4.47;;;;;;;;;;5090770;28;20199;-38
2023/07/08 04:10:25;;;;;;;13.88;4.57;;;;;;;;;;5092540;28;20548;-38
2023/07/08 04:12:52;;;;;;;6.57;4.28;;;;;;;;;;5093665;28;20201;-38
2023/07/08 04:15:25;;;;;;;6.25;4.20;;;;;;;;;;5093624;28;20652;-38
2023/07/08 04:17:53;;;;;;;8.10;4.10;;;;;;;;;;5093766;28;20190;-38
2023/07/08 04:20:21;;;;;;;7.22;3.80;;;;;;;;;;5118092;27;20222;-37
2023/07/08 04:22:48;;;;;;;4.72;3.75;;;;;;;;;;5093715;28;20605;-37
2023/07/08 04:25:18;;;;;;;5.97;4.63;;;;;;;;;;5091378;28;20227;-37
2023/07/08 04:27:45;;;;;;;7.88;4.28;;;;;;;;;;5087767;28;20656;-37
2023/07/08 04:30:24;;;;;;;6.28;3.80;;;;;;;;;;5089135;28;20644;-37
2023/07/08 04:32:52;;;;;;;10.15;4.63;;;;;;;;;;5093353;28;20650;-38
2023/07/08 04:35:19;;;;;;;4.55;3.78;;;;;;;;;;5093342;28;20552;-38
2023/07/08 04:37:47;;;;;;;11.88;3.90;;;;;;;;;;5093548;28;20198;-38
2023/07/08 04:40:20;;;;;;;7.88;4.40;;;;;;;;;;5090532;28;20198;-37
2023/07/08 04:42:47;;;;;;;10.07;4.95;;;;;;;;;;5093486;28;20260;-38
2023/07/08 04:45:16;;;;;;;6.57;4.10;;;;;;;;;;5093527;28;20585;-38
2023/07/08 04:47:51;;;;;;;5.57;3.88;;;;;;;;;;5093492;28;20256;-38
2023/07/08 04:50:20;;;;;;;7.75;3.88;;;;;;;;;;5089836;28;20195;-38
2023/07/08 04:52:47;;;;;;;5.75;4.25;;;;;;;;;;5090623;28;20293;-37
2023/07/08 04:55:15;;;;;;;6.28;3.83;;;;;;;;;;5092689;28;20194;-38
2023/07/08 04:57:42;;;;;;;7.60;4.47;;;;;;;;;;5088395;28;20748;-38
2023/07/08 05:00:15;;;;;;;6.45;3.83;;;;;;;;;;5092523;28;20202;-37
2023/07/08 05:02:42;;;;;;;8.55;3.63;;;;;;;;;;5089996;28;20728;-38
2023/07/08 05:05:10;;;;;;;5.03;3.25;;;;;;;;;;5078699;28;20710;-37
2023/07/08 05:07:37;;;;;;;4.70;3.28;;;;;;;;;;5088093;28;20219;-37
2023/07/08 05:10:05;;;;;;;4.40;2.67;;;;;;;;;;5073455;28;20218;-37
2023/07/08 05:12:32;;;;;;;4.97;2.70;;;;;;;;;;5086329;28;20230;-39
2023/07/08 05:14:59;;;;;;;3.17;2.28;;;;;;;;;;5091699;28;20240;-39
2023/07/08 05:17:27;;;;;;;2.53;2.05;;;;;;;;;;5088826;28;20570;-39
2023/07/08 05:19:57;;;;;;;3.83;2.15;;;;;;;;;;5091477;28;20271;-38
2023/07/08 05:22:25;;;;;;;3.85;2.00;;;;;;;;;;5093901;28;20219;-38
2023/07/08 05:24:55;;;;;;;2.35;1.67;;;;;;;;;;5095913;28;20211;-39
2023/07/08 05:27:22;;;;;;;3.90;2.10;;;;;;;;;;5090788;28;20210;-40
2023/07/08 05:29:50;;;;;;;5.90;2.60;;;;;;;;;;5094931;28;20214;-39
2023/07/08 05:32:17;;;;;;;4.38;2.10;;;;;;;;;;5092954;28;20226;-41
2023/07/08 05:34:45;;;;;;;3.10;1.80;;;;;;;;;;5092574;28;20606;-45
2023/07/08 05:37:13;;;;;;;3.97;2.05;;;;;;;;;;5092774;28;20310;-39
2023/07/08 05:39:40;;;;;;;4.32;1.73;;;;;;;;;;5094590;28;20226;-42
2023/07/08 05:42:07;;;;;;;3.75;2.13;;;;;;;;;;5095208;28;20276;-38
2023/07/08 05:44:35;;;;;;;3.28;1.80;;;;;;;;;;5095341;28;20695;-40
2023/07/08 05:47:02;;;;;;;3.65;1.85;;;;;;;;;;5095686;28;20699;-37
2023/07/08 05:49:29;;;;;;;2.47;1.35;;;;;;;;;;5095602;28;20222;-39
2023/07/08 05:51:56;;;;;;;2.40;1.50;;;;;;;;;;5094112;28;20738;-41
2023/07/08 05:54:23;;;;;;;4.85;1.38;;;;;;;;;;5091820;28;20269;-38
2023/07/08 05:56:51;;;;;;;2.22;1.60;;;;;;;;;;5095720;28;20253;-38
2023/07/08 05:59:19;;;;;;;5.57;1.70;;;;;;;;;;5095664;28;20267;-41
2023/07/08 06:01:46;;;;;;;2.67;1.50;;;;;;;;;;5094849;28;20628;-33
2023/07/08 06:04:13;;;;;;;3.80;1.33;;;;;;;;;;5094746;28;20233;-35
2023/07/08 06:06:40;;;;;;;2.65;1.50;;;;;;;;;;5095744;28;20715;-35
2023/07/08 06:09:07;;;;;;;2.65;1.10;;;;;;;;;;5095162;28;20222;-37
2023/07/08 06:11:34;;;;;;;2.67;1.23;;;;;;;;;;5084281;28;20231;-35
2023/07/08 06:14:01;;;;;;;1.70;1.30;;;;;;;;;;5075595;28;20238;-37
2023/07/08 06:16:29;;;;;;;1.90;1.38;;;;;;;;;;5075786;28;20215;-37
2023/07/08 06:19:07;;;;;;;4.50;1.58;;;;;;;;;;5093858;28;20210;-37
2023/07/08 06:21:34;;;;;;;2.55;1.10;;;;;;;;;;5095312;28;20222;-37
2023/07/08 06:24:02;;;;;;;2.25;1.40;;;;;;;;;;5095631;28;20257;-37
2023/07/08 06:26:29;;;;;;;1.92;1.40;;;;;;;;;;5093576;28;20234;-36
2023/07/08 06:28:56;;;;;;;1.67;1.27;;;;;;;;;;5094179;28;20218;-36
2023/07/08 06:31:23;;;;;;;2.78;1.30;;;;;;;;;;5093982;28;20223;-37
2023/07/08 06:33:50;;;;;;;2.38;1.70;;;;;;;;;;5093010;28;20226;-37
2023/07/08 06:36:17;;;;;;;1.60;1.25;;;;;;;;;;5094655;28;20279;-37
2023/07/08 06:38:45;;;;;;;1.67;1.13;;;;;;;;;;5094029;28;20717;-38
2023/07/08 06:41:12;;;;;;;2.17;1.48;;;;;;;;;;5094066;28;20279;-36
2023/07/08 06:43:39;;;;;;;1.27;1.05;;;;;;;;;;5093843;28;20331;-36
2023/07/08 06:46:20;;;;;;;3.97;1.73;;;;;;;;;;5094046;28;20219;-36
2023/07/08 06:48:48;;;;;;;2.03;1.13;;;;;;;;;;5092735;28;20230;-36
2023/07/08 06:51:15;;;;;;;2.15;1.20;;;;;;;;;;5080767;28;20727;-36
2023/07/08 06:53:42;;;;;;;1.60;1.10;;;;;;;;;;5081205;28;20242;-37
2023/07/08 06:56:09;;;;;;;1.60;1.20;;;;;;;;;;5092888;28;20301;-36
2023/07/08 06:58:36;;;;;;;2.05;1.20;;;;;;;;;;5093974;28;20234;-36
2023/07/08 07:01:03;;;;;;;2.88;1.40;;;;;;;;;;5093678;28;20222;-36
2023/07/08 07:03:31;;;;;;;1.45;1.15;;;;;;;;;;5091397;28;20707;-36
2023/07/08 07:05:58;;;;;;;2.08;1.23;;;;;;;;;;5093225;28;20305;-37
2023/07/08 07:08:25;;;;;;;3.33;2.33;;;;;;;;;;5092910;28;20237;-37
2023/07/08 07:10:52;;;;;;;2.25;1.40;;;;;;;;;;5093667;28;20223;-37
2023/07/08 07:13:19;;;;;;;1.27;1.13;;;;;;;;;;5092114;28;20219;-38
2023/07/08 07:15:49;;;;;;;3.40;1.38;;;;;;;;;;5092166;28;20632;-38
2023/07/08 07:18:22;;;;;;;1.77;1.17;;;;;;;;;;5084670;28;20218;-38
2023/07/08 07:20:52;;;;;;;2.35;1.42;;;;;;;;;;5087504;28;20218;-37
2023/07/08 07:23:20;;;;;;;1.80;1.20;;;;;;;;;;5092237;28;20576;-38
2023/07/08 07:25:47;;;;;;;2.22;1.20;;;;;;;;;;5040980;28;1245028;-39
2023/07/08 07:28:16;;;;;;;2.55;1.20;;;;;;;;;;5090638;28;20724;-40
2023/07/08 07:30:44;;;;;;;6.38;1.60;;;;;;;;;;5091780;28;20341;-40
2023/07/08 07:33:11;;;;;;;2.85;1.30;;;;;;;;;;5092445;28;20222;-40
2023/07/08 07:35:43;;;;;;;3.28;1.20;;;;;;;;;;5093308;28;20691;-39
2023/07/08 07:38:11;;;;;;;1.42;1.08;;;;;;;;;;5093584;28;20197;-39
2023/07/08 07:40:39;;;;;;;3.97;1.42;;;;;;;;;;5085178;28;20209;-41
2023/07/08 07:43:06;;;;;;;1.80;1.00;;;;;;;;;;5092282;28;20218;-39
2023/07/08 07:45:34;;;;;;;4.20;1.50;;;;;;;;;;5092738;28;20219;-38
2023/07/08 07:48:01;;;;;;;3.78;1.30;;;;;;;;;;5086040;28;20735;-41
2023/07/08 07:50:28;;;;;;;1.98;1.38;;;;;;;;;;5080445;28;20625;-41
2023/07/08 07:52:56;;;;;;;1.67;1.23;;;;;;;;;;5092010;28;20237;-39
2023/07/08 07:55:23;;;;;;;2.13;1.20;;;;;;;;;;5078652;28;20250;-39
2023/07/08 07:57:50;;;;;;;1.40;1.30;;;;;;;;;;5092744;28;20226;-38
2023/07/08 08:00:17;;;;;;;2.47;1.35;;;;;;;;;;5092843;28;20245;-38
2023/07/08 08:02:44;;;;;;;1.45;1.27;;;;;;;;;;5090902;28;20279;-39
2023/07/08 08:05:12;;;;;;;1.55;1.02;;;;;;;;;;5072401;28;20228;-38
2023/07/08 08:07:40;;;;;;;1.85;1.17;;;;;;;;;;5081645;28;20703;-38
2023/07/08 08:10:08;;;;;;;1.92;1.30;;;;;;;;;;5093183;28;20681;-39
2023/07/08 08:12:35;;;;;;;2.25;1.17;;;;;;;;;;5092119;28;20263;-39
2023/07/08 08:15:19;;;;;;;3.53;1.40;;;;;;;;;;5092900;28;20267;-39
2023/07/08 08:17:48;;;;;;;5.22;1.20;;;;;;;;;;5092473;28;20223;-39
2023/07/08 08:20:16;;;;;;;3.22;1.45;;;;;;;;;;5091429;28;20779;-38
2023/07/08 08:22:43;;;;;;;4.10;1.38;;;;;;;;;;5092984;28;20221;-39
2023/07/08 08:25:10;;;;;;;1.67;1.27;;;;;;;;;;5090979;28;20250;-38
2023/07/08 08:27:38;;;;;;;3.25;1.20;;;;;;;;;;5092969;28;20211;-39
2023/07/08 08:30:05;;;;;;;3.33;1.52;;;;;;;;;;5092810;28;20314;-39
2023/07/08 08:32:33;;;;;;;1.55;1.00;;;;;;;;;;5088052;28;20211;-39
2023/07/08 08:35:00;;;;;;;1.63;1.00;;;;;;;;;;5072185;28;20257;-39
2023/07/08 08:37:29;;;;;;;1.17;0.95;;;;;;;;;;5087804;28;20289;-39
2023/07/08 08:39:56;;;;;;;2.08;1.33;;;;;;;;;;5092481;28;20222;-46
2023/07/08 08:42:33;;;;;;;2.15;1.02;;;;;;;;;;5092516;28;20690;-39
2023/07/08 08:45:01;;;;;;;2.22;1.05;;;;;;;;;;5092497;28;20365;-39
2023/07/08 08:47:39;;;;;;;1.65;1.13;;;;;;;;;;5074215;28;20258;-38
2023/07/08 08:50:09;;;;;;;3.50;1.30;;;;;;;;;;5092682;28;20215;-40
2023/07/08 08:52:38;;;;;;;3.13;0.90;;;;;;;;;;5092302;28;20219;-38
2023/07/08 08:55:12;;;;;;;2.00;1.30;;;;;;;;;;5090334;28;20223;-38
2023/07/08 08:58:02;;;;;;;2.22;1.17;;;;;;;;;;5091610;28;20237;-38
2023/07/08 09:00:42;;;;;;;2.75;1.17;;;;;;;;;;5092318;28;20707;-39
2023/07/08 09:03:14;;;;;;;1.25;1.13;;;;;;;;;;5090234;28;20226;-38
2023/07/08 09:05:45;;;;;;;2.53;1.50;;;;;;;;;;5091090;28;20336;-39
2023/07/08 09:08:31;;;;;;;2.65;1.10;;;;;;;;;;5092248;28;20305;-39
2023/07/08 09:11:10;;;;;;;1.80;1.20;;;;;;;;;;5092477;28;20275;-38
2023/07/08 09:13:38;;;;;;;3.28;1.45;;;;;;;;;;5090505;28;20219;-38
2023/07/08 09:16:43;;;;;;;2.65;0.98;;;;;;;;;;5090807;28;20687;-36
2023/07/08 09:19:33;;;;;;;2.30;1.40;;;;;;;;;;5091797;28;20215;-38
2023/07/08 09:22:11;;;;;;;4.95;1.35;;;;;;;;;;5089640;28;20222;-36
2023/07/08 09:25:00;;;;;;;1.77;1.17;;;;;;;;;;5079852;28;20257;-36
2023/07/08 09:27:27;;;;;;;1.63;1.10;;;;;;;;;;5090934;28;20233;-38
2023/07/08 09:29:56;;;;;;;5.80;1.00;;;;;;;;;;5091126;28;20226;-35
2023/07/08 09:32:26;;;;;;;3.13;1.33;;;;;;;;;;5090934;28;20242;-38
2023/07/08 09:35:06;;;;;;;2.25;1.27;;;;;;;;;;5091824;28;20429;-37
2023/07/08 09:37:35;;;;;;;1.35;1.05;;;;;;;;;;5089998;28;20583;-37
2023/07/08 09:40:14;;;;;;;1.88;1.27;;;;;;;;;;5091319;28;20865;-40
2023/07/08 09:42:42;;;;;;;1.67;1.13;;;;;;;;;;5092163;28;20219;-37
2023/07/08 09:45:17;;;;;;;1.63;1.08;;;;;;;;;;5088658;28;20447;-37
2023/07/08 09:47:45;;;;;;;6.75;1.02;;;;;;;;;;5088482;28;20280;-37
2023/07/08 09:50:20;;;;;;;1.80;1.38;;;;;;;;;;5092193;28;20223;-39
2023/07/08 09:52:48;;;;;;;1.42;0.90;;;;;;;;;;5075885;28;20217;-39
2023/07/08 09:55:17;;;;;;;1.45;1.05;;;;;;;;;;5092201;28;20230;-38
2023/07/08 09:57:46;;;;;;;4.05;1.30;;;;;;;;;;5091854;28;20600;-38
2023/07/08 10:00:16;;;;;;;1.63;1.20;;;;;;;;;;5091670;28;20226;-38
2023/07/08 10:02:52;;;;;;;1.73;1.10;;;;;;;;;;5090470;28;20226;-39
2023/07/08 10:05:33;;;;;;;1.88;1.23;;;;;;;;;;5091672;28;20222;-38
2023/07/08 10:08:03;;;;;;;1.90;1.05;;;;;;;;;;5095099;28;20237;-39
2023/07/08 10:10:39;;;;;;;3.83;1.30;;;;;;;;;;5096304;28;20214;-38
2023/07/08 10:13:17;;;;;;;1.35;1.02;;;;;;;;;;5093920;28;20246;-39
2023/07/08 10:15:52;;;;;;;1.45;1.10;;;;;;;;;;5095012;28;20226;-38
2023/07/08 10:18:26;;;;;;;1.80;1.05;;;;;;;;;;5091475;28;20236;-38
2023/07/08 10:20:56;;;;;;;2.03;0.98;;;;;;;;;;5090260;28;20219;-38
2023/07/08 10:23:29;;;;;;;2.03;0.95;;;;;;;;;;5088674;28;20304;-39
2023/07/08 10:26:03;;;;;;;2.85;1.25;;;;;;;;;;5091855;28;20226;-40
2023/07/08 10:28:46;;;;;;;3.33;1.10;;;;;;;;;;5092975;28;20576;-38
2023/07/08 10:31:47;;;;;;;1.35;1.00;;;;;;;;;;5093006;28;20230;-38
2023/07/08 10:34:20;;;;;;;4.65;1.40;;;;;;;;;;5071488;28;20257;-37
2023/07/08 10:37:19;;;;;;;5.57;1.08;;;;;;;;;;5095208;28;20625;-38
2023/07/08 10:39:53;;;;;;;3.20;0.85;;;;;;;;;;5092667;28;20634;-39
2023/07/08 10:42:39;;;;;;;3.47;1.50;;;;;;;;;;5093511;28;20226;-37
2023/07/08 10:45:15;;;;;;;1.88;1.38;;;;;;;;;;5078157;28;20254;-35
2023/07/08 10:48:00;;;;;;;1.48;0.93;;;;;;;;;;5090686;28;20219;-38
2023/07/08 10:50:53;;;;;;;1.27;1.00;;;;;;;;;;5090442;28;20254;-35
2023/07/08 10:53:46;;;;;;;1.30;0.88;;;;;;;;;;5078535;28;20230;-37
2023/07/08 10:56:24;;;;;;;2.35;1.23;;;;;;;;;;5090031;28;20195;-40
2023/07/08 10:59:15;;;;;;;1.83;1.10;;;;;;;;;;5094435;28;20263;-38
2023/07/08 11:01:45;;;;;;;2.05;1.00;;;;;;;;;;5095755;28;20183;-37
2023/07/08 11:04:32;;;;;;;1.83;1.02;;;;;;;;;;5094570;28;20683;-36
2023/07/08 11:07:14;;;;;;;2.10;0.93;;;;;;;;;;5090250;28;20256;-37
2023/07/08 11:10:14;;;;;;;2.00;1.10;;;;;;;;;;5092011;28;20322;-36
2023/07/08 11:12:51;;;;;;;1.73;1.20;;;;;;;;;;5036081;28;20611;-36
2023/07/08 11:15:25;;;;;;;2.22;1.17;;;;;;;;;;5047580;28;20211;-36
2023/07/08 11:17:53;;;;;;;1.63;1.10;;;;;;;;;;5051096;28;20287;-36
2023/07/08 11:20:36;;;;;;;1.30;0.95;;;;;;;;;;5050501;28;20269;-36
2023/07/08 11:23:27;;;;;;;1.98;1.08;;;;;;;;;;5032289;28;20246;-36
2023/07/08 11:26:07;;;;;;;1.92;1.20;;;;;;;;;;5032261;28;20318;-36
2023/07/08 11:28:34;;;;;;;1.90;1.30;;;;;;;;;;5037829;28;20188;-37
2023/07/08 11:31:02;;;;;;;1.65;1.10;;;;;;;;;;5050377;28;20204;-37
2023/07/08 11:33:31;;;;;;;1.63;1.02;;;;;;;;;;5052041;28;20630;-37
2023/07/08 11:36:03;;;;;;;2.47;1.20;;;;;;;;;;5052165;28;20204;-37
2023/07/08 11:38:33;;;;;;;1.10;0.95;;;;;;;;;;5052349;28;20224;-39
2023/07/08 11:41:04;;;;;;;1.50;1.00;;;;;;;;;;5052339;28;20211;-37
2023/07/08 11:43:40;;;;;;;3.75;1.20;;;;;;;;;;5051779;28;20196;-37
2023/07/08 11:46:15;;;;;;;3.22;1.20;;;;;;;;;;5035862;28;20180;-37
2023/07/08 11:48:47;;;;;;;1.13;1.02;;;;;;;;;;5066337;28;20201;-37
2023/07/08 11:51:19;;;;;;;1.00;0.90;;;;;;;;;;5094160;28;20175;-37
2023/07/08 11:53:49;;;;;;;1.75;0.90;;;;;;;;;;5093687;28;20190;-37
2023/07/08 11:56:16;;;;;;;2.65;1.20;;;;;;;;;;5094515;28;20190;-37
2023/07/08 11:58:50;;;;;;;1.40;1.17;;;;;;;;;;5094316;28;20597;-36
2023/07/08 12:01:17;;;;;;;2.40;1.27;;;;;;;;;;5094804;28;20190;-37
2023/07/08 12:03:50;;;;;;;1.50;1.20;;;;;;;;;;5093854;28;20226;-38
2023/07/08 12:06:38;;;;;;;1.52;1.17;;;;;;;;;;5094664;28;20195;-37
2023/07/08 12:09:24;;;;;;;1.38;1.17;;;;;;;;;;5086738;28;20198;-37
2023/07/08 12:11:59;;;;;;;1.10;0.93;;;;;;;;;;5093159;28;20202;-38
2023/07/08 12:14:27;;;;;;;1.48;1.20;;;;;;;;;;5093835;28;20224;-37
2023/07/08 12:16:55;;;;;;;2.33;1.27;;;;;;;;;;5092849;28;20320;-37
2023/07/08 12:19:25;;;;;;;1.17;0.90;;;;;;;;;;5092279;28;20202;-37
2023/07/08 12:21:55;;;;;;;1.83;1.20;;;;;;;;;;5060877;28;20201;-37
2023/07/08 12:24:26;;;;;;;1.52;0.93;;;;;;;;;;5093570;28;20541;-37
2023/07/08 12:26:53;;;;;;;2.95;1.20;;;;;;;;;;5093867;28;20223;-39
2023/07/08 12:29:20;;;;;;;1.73;0.90;;;;;;;;;;5093520;28;20237;-37
2023/07/08 12:31:49;;;;;;;2.05;1.25;;;;;;;;;;5093402;28;20206;-36
2023/07/08 12:34:17;;;;;;;1.55;0.98;;;;;;;;;;5092870;28;20199;-37
2023/07/08 12:36:45;;;;;;;1.30;1.00;;;;;;;;;;5090781;28;20288;-36
2023/07/08 12:39:16;;;;;;;1.98;1.20;;;;;;;;;;5093781;28;20984;-36
2023/07/08 12:41:45;;;;;;;2.40;1.30;;;;;;;;;;5094053;28;20198;-37
2023/07/08 12:44:30;;;;;;;1.55;0.98;;;;;;;;;;5093308;28;20218;-37
2023/07/08 12:47:01;;;;;;;3.50;0.95;;;;;;;;;;5093884;28;20256;-37
2023/07/08 12:49:29;;;;;;;2.33;1.52;;;;;;;;;;5093746;28;20274;-37
2023/07/08 12:51:57;;;;;;;2.63;1.48;;;;;;;;;;5087657;28;20217;-41
2023/07/08 12:54:25;;;;;;;1.27;1.00;;;;;;;;;;5089587;28;20229;-37
2023/07/08 12:56:54;;;;;;;1.90;1.25;;;;;;;;;;5086884;28;20281;-38
2023/07/08 12:59:23;;;;;;;4.50;1.17;;;;;;;;;;5071685;28;20765;-37
2023/07/08 13:01:51;;;;;;;1.35;1.00;;;;;;;;;;5089599;28;20579;-40
2023/07/08 13:04:19;;;;;;;1.60;1.13;;;;;;;;;;5087024;28;20234;-36
2023/07/08 13:06:47;;;;;;;3.13;1.20;;;;;;;;;;5082600;28;20225;-37
2023/07/08 13:09:40;;;;;;;1.58;1.20;;;;;;;;;;5087874;28;20227;-37
2023/07/08 13:12:16;;;;;;;1.42;1.20;;;;;;;;;;5072593;28;20222;-37
2023/07/08 13:14:45;;;;;;;1.92;1.08;;;;;;;;;;5087130;28;20215;-37
2023/07/08 13:17:14;;;;;;;1.45;0.90;;;;;;;;;;5067687;28;20675;-36
2023/07/08 13:19:43;;;;;;;1.45;0.88;;;;;;;;;;5073048;28;20634;-37
2023/07/08 13:22:18;;;;;;;1.08;0.90;;;;;;;;;;5071898;28;20286;-36
2023/07/08 13:24:45;;;;;;;7.20;0.98;;;;;;;;;;5089473;28;20263;-36
2023/07/08 13:27:23;;;;;;;1.73;1.30;;;;;;;;;;5087343;28;20279;-36
2023/07/08 13:29:54;;;;;;;1.40;0.98;;;;;;;;;;5092024;28;20209;-36
2023/07/08 13:32:30;;;;;;;1.70;1.10;;;;;;;;;;5091996;28;20241;-43
2023/07/08 13:34:57;;;;;;;1.42;0.98;;;;;;;;;;5089075;27;20226;-36
2023/07/08 13:37:25;;;;;;;1.83;1.30;;;;;;;;;;5087489;28;20238;-36
2023/07/08 13:39:53;;;;;;;3.47;1.30;;;;;;;;;;5091375;28;20222;-37
2023/07/08 13:42:21;;;;;;;1.30;0.93;;;;;;;;;;5093716;28;20218;-38
2023/07/08 13:44:49;;;;;;;1.50;1.17;;;;;;;;;;5095706;28;20219;-36
2023/07/08 13:47:22;;;;;;;1.83;1.25;;;;;;;;;;5096019;28;20370;-36
2023/07/08 13:49:56;;;;;;;2.97;0.93;;;;;;;;;;5094341;28;20641;-36
2023/07/08 13:52:23;;;;;;;1.90;1.00;;;;;;;;;;5091804;28;20219;-37
2023/07/08 13:54:53;;;;;;;1.85;1.30;;;;;;;;;;5095812;28;20272;-39
2023/07/08 13:57:31;;;;;;;2.10;1.35;;;;;;;;;;5095753;28;20226;-39
2023/07/08 13:59:58;;;;;;;3.00;1.00;;;;;;;;;;5095444;28;20214;-41
2023/07/08 14:02:29;;;;;;;1.05;0.88;;;;;;;;;;5095661;28;20226;-36
2023/07/08 14:04:58;;;;;;;1.33;1.00;;;;;;;;;;5093884;28;20643;-37
2023/07/08 14:07:28;;;;;;;0.95;0.82;;;;;;;;;;5094978;28;20690;-38
2023/07/08 14:09:55;;;;;;;2.28;1.13;;;;;;;;;;5094954;28;20690;-40
2023/07/08 14:12:23;;;;;;;1.67;1.08;;;;;;;;;;5090070;28;20354;-38
2023/07/08 14:14:50;;;;;;;2.15;1.10;;;;;;;;;;5091747;28;20707;-40
2023/07/08 14:17:23;;;;;;;1.25;0.90;;;;;;;;;;5095728;28;20218;-38
2023/07/08 14:19:50;;;;;;;1.73;1.02;;;;;;;;;;5094404;28;20576;-39
2023/07/08 14:22:31;;;;;;;2.20;1.10;;;;;;;;;;5077362;28;20246;-39
2023/07/08 14:25:03;;;;;;;1.70;1.00;;;;;;;;;;5094936;28;20318;-39
2023/07/08 14:27:30;;;;;;;1.77;1.00;;;;;;;;;;5094029;28;20222;-39
2023/07/08 14:29:57;;;;;;;1.35;1.17;;;;;;;;;;5094967;28;20288;-38
2023/07/08 14:32:29;;;;;;;1.52;1.20;;;;;;;;;;5094815;28;20229;-38
2023/07/08 14:35:00;;;;;;;2.25;1.02;;;;;;;;;;5091978;28;20226;-39
2023/07/08 14:37:27;;;;;;;1.85;0.90;;;;;;;;;;5093366;28;20223;-39
2023/07/08 14:39:54;;;;;;;1.35;1.00;;;;;;;;;;5082464;28;20222;-35
2023/07/08 14:42:22;;;;;;;4.15;1.25;;;;;;;;;;5093943;28;20226;-38
2023/07/08 14:44:49;;;;;;;2.08;1.33;;;;;;;;;;5083241;28;20227;-38
2023/07/08 14:47:19;;;;;;;4.03;1.13;;;;;;;;;;5094755;28;20210;-38
2023/07/08 14:49:46;;;;;;;1.75;1.10;;;;;;;;;;5091668;28;20784;-35
2023/07/08 14:52:14;;;;;;;1.75;1.20;;;;;;;;;;5094369;28;20230;-39
2023/07/08 14:54:41;;;;;;;1.45;1.08;;;;;;;;;;5095145;28;20218;-38
2023/07/08 14:57:10;;;;;;;6.03;1.08;;;;;;;;;;5095096;28;20275;-38
2023/07/08 14:59:38;;;;;;;1.20;1.00;;;;;;;;;;5087845;28;20223;-36
2023/07/08 15:02:17;;;;;;;2.45;1.13;;;;;;;;;;5094802;28;20696;-36
2023/07/08 15:04:44;;;;;;;1.30;1.00;;;;;;;;;;5093202;28;20313;-41